OpenWheelWorld.net Home
scott dixon
linker balk
Firestone Grand Prix of Monterey  
Track: Laguna Seca  
Type: Roadcourse  
Length: 3.602 km.  
Trackrecord: 1:07.722  
Mario Dominguez Mario Dominguez "Laguna Seca is a beautiful track with lots of changes in elevation. It is very fast with no room for error. The corkscrew, turn 7, is great for the drivers as well as the fans."  
Free practice 1  
P Driver Team Time GL GP AVG  
1. C. Herta (R) HS Racing 1:10.734 0.000  
2. F. Rosenqvist (R) Ganassi Racing 1:10.805 0.072 0.000  
3. S. Ferrucci (R) Dale Coyne 1:10.884 0.150 0.078 0.000  
4. W. Power Team Penske 1:11.002 0.269 0.119 0.000  
5. Z. Veach Andretti Autosport 1:11.082 0.348 0.079 0.000  
6. S. Pagenaud Team Penske 1:11.152 0.418 0.070 0.000  
7. S. Bourdais Dale Coyne 1:11.158 0.425 0.006 0.000  
8. S. Pigot Ed Carpenter Racing 1:11.238 0.505 0.080 0.000  
9. J. Newgarden Team Penske 1:11.246 0.512 0.008 0.000  
10. M. Leist A.J. Foyt Enterprises 1:11.270 0.537 0.024 0.000  
11. Mo. Andretti Andretti Autosport 1:11.283 0.549 0.013 0.000  
12. M. Ericsson (R) Arrow Schmidt Peterson 1:11.302 0.568 0.019 0.000  
13. M. Chilton Carlin 1:11.411 0.677 0.109 0.000  
14. S. Dixon Ganassi Racing 1:11.445 0.712 0.034 0.000  
15. R. Hunter-Reay Andretti Autosport 1:11.453 0.720 0.008 0.000  
16. C. Kimball Carlin 1:11.547 0.814 0.094 0.000  
17. T. Kanaan A.J. Foyt Enterprises 1:11.624 0.890 0.076 0.000  
18. T. Sato Rahal Letterman Lanigan 1:11.677 0.944 0.054 0.000  
19. J. Harvey Meyer-Shank Racing 1:11.745 1.011 0.068 0.000  
20. C. Daly Andretti Autosport 1:11.932 1.198 0.187 0.000  
21. G. Rahal Rahal Letterman Lanigan 1:12.004 1.271 0.072 0.000  
22. J. Hinchcliffe Arrow Schmidt Peterson 1:12.013 1.279 0.008 0.000  
23. E. Jones Ed Carpenter Racing 1:12.160 1.427 0.148 0.000  
24. A. Rossi Andretti Autosport 1:12.993 2.260 0.833 0.000  
 

P Position | GL Gap Leader | GP Gap Previous | AVG Average Speed